sensor_id;sensor_type;location;lat;lon;timestamp;P1;durP1;ratioP1;P2;durP2;ratioP2
17091;SDS011;8661;45.700;4.880;2023-02-01T00:02:15;9.27;;;5.57;;
17091;SDS011;8661;45.700;4.880;2023-02-01T00:04:42;14.87;;;7.20;;
17091;SDS011;8661;45.700;4.880;2023-02-01T00:07:08;25.87;;;12.37;;
17091;SDS011;8661;45.700;4.880;2023-02-01T00:09:35;23.80;;;11.83;;
17091;SDS011;8661;45.700;4.880;2023-02-01T00:12:05;32.17;;;13.57;;
17091;SDS011;8661;45.700;4.880;2023-02-01T00:14:33;28.93;;;14.00;;
17091;SDS011;8661;45.700;4.880;2023-02-01T00:17:03;31.73;;;14.37;;
17091;SDS011;8661;45.700;4.880;2023-02-01T00:19:32;35.50;;;15.60;;
17091;SDS011;8661;45.700;4.880;2023-02-01T00:21:59;37.10;;;15.90;;
17091;SDS011;8661;45.700;4.880;2023-02-01T00:24:27;33.60;;;15.43;;
17091;SDS011;8661;45.700;4.880;2023-02-01T00:26:54;29.20;;;13.30;;
17091;SDS011;8661;45.700;4.880;2023-02-01T00:29:24;29.10;;;14.67;;
17091;SDS011;8661;45.700;4.880;2023-02-01T00:31:52;31.47;;;14.73;;
17091;SDS011;8661;45.700;4.880;2023-02-01T00:34:19;29.97;;;13.97;;
17091;SDS011;8661;45.700;4.880;2023-02-01T00:36:47;31.83;;;13.37;;
17091;SDS011;8661;45.700;4.880;2023-02-01T00:39:14;29.37;;;12.57;;
17091;SDS011;8661;45.700;4.880;2023-02-01T00:41:41;30.03;;;12.00;;
17091;SDS011;8661;45.700;4.880;2023-02-01T00:44:08;29.07;;;12.87;;
17091;SDS011;8661;45.700;4.880;2023-02-01T00:46:37;30.87;;;12.63;;
17091;SDS011;8661;45.700;4.880;2023-02-01T00:49:05;24.70;;;11.30;;
17091;SDS011;8661;45.700;4.880;2023-02-01T00:51:34;20.27;;;9.63;;
17091;SDS011;8661;45.700;4.880;2023-02-01T00:54:01;17.77;;;9.70;;
17091;SDS011;8661;45.700;4.880;2023-02-01T00:56:29;17.80;;;9.80;;
17091;SDS011;8661;45.700;4.880;2023-02-01T00:58:58;17.33;;;9.63;;
17091;SDS011;8661;45.700;4.880;2023-02-01T01:01:26;15.70;;;9.90;;
17091;SDS011;8661;45.700;4.880;2023-02-01T01:03:56;12.00;;;8.17;;
17091;SDS011;8661;45.700;4.880;2023-02-01T01:06:26;13.93;;;9.40;;
17091;SDS011;8661;45.700;4.880;2023-02-01T01:08:55;14.17;;;9.00;;
17091;SDS011;8661;45.700;4.880;2023-02-01T01:11:24;15.30;;;9.23;;
17091;SDS011;8661;45.700;4.880;2023-02-01T01:13:52;13.63;;;9.33;;
17091;SDS011;8661;45.700;4.880;2023-02-01T01:16:22;15.13;;;9.73;;
17091;SDS011;8661;45.700;4.880;2023-02-01T01:18:50;12.77;;;9.00;;
17091;SDS011;8661;45.700;4.880;2023-02-01T01:21:20;13.37;;;9.33;;
17091;SDS011;8661;45.700;4.880;2023-02-01T01:23:47;14.93;;;9.40;;
17091;SDS011;8661;45.700;4.880;2023-02-01T01:26:15;14.43;;;9.30;;
17091;SDS011;8661;45.700;4.880;2023-02-01T01:28:44;14.77;;;9.67;;
17091;SDS011;8661;45.700;4.880;2023-02-01T01:31:12;16.90;;;9.67;;
17091;SDS011;8661;45.700;4.880;2023-02-01T01:33:40;13.30;;;8.87;;
17091;SDS011;8661;45.700;4.880;2023-02-01T01:36:09;13.50;;;9.13;;
17091;SDS011;8661;45.700;4.880;2023-02-01T01:38:38;13.47;;;9.30;;
17091;SDS011;8661;45.700;4.880;2023-02-01T01:41:06;16.13;;;9.20;;
17091;SDS011;8661;45.700;4.880;2023-02-01T01:43:46;13.80;;;9.33;;
17091;SDS011;8661;45.700;4.880;2023-02-01T01:46:16;14.13;;;9.37;;
17091;SDS011;8661;45.700;4.880;2023-02-01T01:48:44;13.37;;;9.17;;
17091;SDS011;8661;45.700;4.880;2023-02-01T01:51:13;12.20;;;8.40;;
17091;SDS011;8661;45.700;4.880;2023-02-01T01:53:44;13.90;;;8.53;;
17091;SDS011;8661;45.700;4.880;2023-02-01T01:56:14;11.87;;;7.97;;
17091;SDS011;8661;45.700;4.880;2023-02-01T01:58:42;13.47;;;8.27;;
17091;SDS011;8661;45.700;4.880;2023-02-01T02:01:09;13.60;;;8.63;;
17091;SDS011;8661;45.700;4.880;2023-02-01T02:03:37;10.30;;;8.07;;
17091;SDS011;8661;45.700;4.880;2023-02-01T02:06:11;12.33;;;7.97;;
17091;SDS011;8661;45.700;4.880;2023-02-01T02:08:48;10.57;;;7.60;;
17091;SDS011;8661;45.700;4.880;2023-02-01T02:11:16;10.60;;;7.70;;
17091;SDS011;8661;45.700;4.880;2023-02-01T02:13:44;11.90;;;7.97;;
17091;SDS011;8661;45.700;4.880;2023-02-01T02:19:22;12.33;;;7.70;;
17091;SDS011;8661;45.700;4.880;2023-02-01T02:22:13;10.63;;;7.30;;
17091;SDS011;8661;45.700;4.880;2023-02-01T02:28:19;13.13;;;7.67;;
17091;SDS011;8661;45.700;4.880;2023-02-01T02:34:07;9.60;;;7.10;;
17091;SDS011;8661;45.700;4.880;2023-02-01T02:36:44;11.60;;;6.87;;
17091;SDS011;8661;45.700;4.880;2023-02-01T02:39:23;12.27;;;6.43;;
17091;SDS011;8661;45.700;4.880;2023-02-01T02:42:01;12.97;;;7.03;;
17091;SDS011;8661;45.700;4.880;2023-02-01T02:44:53;14.20;;;7.43;;
17091;SDS011;8661;45.700;4.880;2023-02-01T02:47:42;9.03;;;6.87;;
17091;SDS011;8661;45.700;4.880;2023-02-01T02:53:09;11.77;;;6.43;;
17091;SDS011;8661;45.700;4.880;2023-02-01T02:55:57;11.90;;;6.90;;
17091;SDS011;8661;45.700;4.880;2023-02-01T02:58:43;10.13;;;6.43;;
17091;SDS011;8661;45.700;4.880;2023-02-01T03:01:29;13.23;;;6.77;;
17091;SDS011;8661;45.700;4.880;2023-02-01T03:04:15;7.33;;;6.43;;
17091;SDS011;8661;45.700;4.880;2023-02-01T03:06:46;10.57;;;6.90;;
17091;SDS011;8661;45.700;4.880;2023-02-01T03:09:14;9.43;;;7.00;;
17091;SDS011;8661;45.700;4.880;2023-02-01T03:11:47;14.40;;;6.37;;
17091;SDS011;8661;45.700;4.880;2023-02-01T03:14:36;9.37;;;6.37;;
17091;SDS011;8661;45.700;4.880;2023-02-01T03:17:08;13.37;;;6.53;;
17091;SDS011;8661;45.700;4.880;2023-02-01T03:19:39;11.53;;;6.57;;
17091;SDS011;8661;45.700;4.880;2023-02-01T03:22:16;8.93;;;6.23;;
17091;SDS011;8661;45.700;4.880;2023-02-01T03:24:46;9.53;;;5.73;;
17091;SDS011;8661;45.700;4.880;2023-02-01T03:27:18;9.67;;;5.97;;
17091;SDS011;8661;45.700;4.880;2023-02-01T03:29:49;9.30;;;5.77;;
17091;SDS011;8661;45.700;4.880;2023-02-01T03:32:21;8.03;;;5.90;;
17091;SDS011;8661;45.700;4.880;2023-02-01T03:34:49;9.87;;;6.03;;
17091;SDS011;8661;45.700;4.880;2023-02-01T03:37:21;12.33;;;6.27;;
17091;SDS011;8661;45.700;4.880;2023-02-01T03:39:52;21.90;;;9.60;;
17091;SDS011;8661;45.700;4.880;2023-02-01T03:42:25;20.03;;;10.10;;
17091;SDS011;8661;45.700;4.880;2023-02-01T03:44:56;16.33;;;8.77;;
17091;SDS011;8661;45.700;4.880;2023-02-01T03:47:27;15.97;;;8.63;;
17091;SDS011;8661;45.700;4.880;2023-02-01T03:49:58;21.50;;;11.10;;
17091;SDS011;8661;45.700;4.880;2023-02-01T03:52:30;19.30;;;10.03;;
17091;SDS011;8661;45.700;4.880;2023-02-01T03:55:02;17.53;;;9.60;;
17091;SDS011;8661;45.700;4.880;2023-02-01T03:57:31;16.93;;;9.23;;
17091;SDS011;8661;45.700;4.880;2023-02-01T04:00:05;14.73;;;8.23;;
17091;SDS011;8661;45.700;4.880;2023-02-01T04:02:36;12.87;;;8.33;;
17091;SDS011;8661;45.700;4.880;2023-02-01T04:05:04;11.87;;;7.63;;
17091;SDS011;8661;45.700;4.880;2023-02-01T04:07:34;13.00;;;7.60;;
17091;SDS011;8661;45.700;4.880;2023-02-01T04:10:00;13.43;;;8.07;;
17091;SDS011;8661;45.700;4.880;2023-02-01T04:12:28;15.43;;;8.23;;
17091;SDS011;8661;45.700;4.880;2023-02-01T04:14:55;13.83;;;8.63;;
17091;SDS011;8661;45.700;4.880;2023-02-01T04:17:23;16.80;;;8.37;;
17091;SDS011;8661;45.700;4.880;2023-02-01T04:19:50;15.47;;;9.23;;
17091;SDS011;8661;45.700;4.880;2023-02-01T04:22:17;13.83;;;8.70;;
17091;SDS011;8661;45.700;4.880;2023-02-01T04:24:45;12.33;;;7.87;;
17091;SDS011;8661;45.700;4.880;2023-02-01T04:27:12;15.17;;;8.83;;
17091;SDS011;8661;45.700;4.880;2023-02-01T04:29:39;11.17;;;8.23;;
17091;SDS011;8661;45.700;4.880;2023-02-01T04:32:06;18.13;;;8.40;;
17091;SDS011;8661;45.700;4.880;2023-02-01T04:34:33;15.53;;;8.70;;
17091;SDS011;8661;45.700;4.880;2023-02-01T04:37:00;12.73;;;8.10;;
17091;SDS011;8661;45.700;4.880;2023-02-01T04:39:27;17.07;;;9.30;;
17091;SDS011;8661;45.700;4.880;2023-02-01T04:41:55;17.67;;;11.30;;
17091;SDS011;8661;45.700;4.880;2023-02-01T04:44:22;18.87;;;10.53;;
17091;SDS011;8661;45.700;4.880;2023-02-01T04:46:49;16.23;;;11.30;;
17091;SDS011;8661;45.700;4.880;2023-02-01T04:49:16;18.10;;;10.30;;
17091;SDS011;8661;45.700;4.880;2023-02-01T04:51:43;19.17;;;11.27;;
17091;SDS011;8661;45.700;4.880;2023-02-01T04:54:10;23.57;;;12.10;;
17091;SDS011;8661;45.700;4.880;2023-02-01T04:56:37;20.87;;;11.17;;
17091;SDS011;8661;45.700;4.880;2023-02-01T04:59:05;19.17;;;11.80;;
17091;SDS011;8661;45.700;4.880;2023-02-01T05:01:32;19.27;;;12.33;;
17091;SDS011;8661;45.700;4.880;2023-02-01T05:04:00;22.83;;;12.77;;
17091;SDS011;8661;45.700;4.880;2023-02-01T05:06:27;24.77;;;13.50;;
17091;SDS011;8661;45.700;4.880;2023-02-01T05:08:54;25.70;;;14.37;;
17091;SDS011;8661;45.700;4.880;2023-02-01T05:11:22;27.90;;;14.90;;
17091;SDS011;8661;45.700;4.880;2023-02-01T05:14:20;24.77;;;14.43;;
17091;SDS011;8661;45.700;4.880;2023-02-01T05:16:47;19.30;;;12.20;;
17091;SDS011;8661;45.700;4.880;2023-02-01T05:19:14;19.10;;;11.23;;
17091;SDS011;8661;45.700;4.880;2023-02-01T05:21:42;23.90;;;11.50;;
17091;SDS011;8661;45.700;4.880;2023-02-01T05:24:10;25.20;;;12.33;;
17091;SDS011;8661;45.700;4.880;2023-02-01T05:26:38;25.10;;;11.73;;
17091;SDS011;8661;45.700;4.880;2023-02-01T05:29:07;27.30;;;11.93;;
17091;SDS011;8661;45.700;4.880;2023-02-01T05:31:37;22.70;;;10.47;;
17091;SDS011;8661;45.700;4.880;2023-02-01T05:34:04;19.07;;;8.67;;
17091;SDS011;8661;45.700;4.880;2023-02-01T05:36:33;15.80;;;8.47;;
17091;SDS011;8661;45.700;4.880;2023-02-01T05:39:00;13.57;;;6.40;;
17091;SDS011;8661;45.700;4.880;2023-02-01T05:41:28;8.83;;;5.13;;
17091;SDS011;8661;45.700;4.880;2023-02-01T05:43:55;10.10;;;4.17;;
17091;SDS011;8661;45.700;4.880;2023-02-01T05:46:22;7.00;;;4.40;;
17091;SDS011;8661;45.700;4.880;2023-02-01T05:51:48;6.87;;;3.73;;
17091;SDS011;8661;45.700;4.880;2023-02-01T05:54:26;6.80;;;3.93;;
17091;SDS011;8661;45.700;4.880;2023-02-01T05:56:53;9.00;;;3.93;;
17091;SDS011;8661;45.700;4.880;2023-02-01T05:59:21;10.73;;;4.50;;
17091;SDS011;8661;45.700;4.880;2023-02-01T06:01:52;9.07;;;4.57;;
17091;SDS011;8661;45.700;4.880;2023-02-01T06:04:24;10.97;;;4.63;;
17091;SDS011;8661;45.700;4.880;2023-02-01T06:06:52;9.07;;;4.20;;
17091;SDS011;8661;45.700;4.880;2023-02-01T06:09:19;7.80;;;4.43;;
17091;SDS011;8661;45.700;4.880;2023-02-01T06:11:46;8.13;;;4.30;;
17091;SDS011;8661;45.700;4.880;2023-02-01T06:14:13;9.53;;;5.43;;
17091;SDS011;8661;45.700;4.880;2023-02-01T06:16:41;10.60;;;5.80;;
17091;SDS011;8661;45.700;4.880;2023-02-01T06:19:10;11.63;;;4.83;;
17091;SDS011;8661;45.700;4.880;2023-02-01T06:21:40;7.73;;;4.67;;
17091;SDS011;8661;45.700;4.880;2023-02-01T06:24:08;7.67;;;4.07;;
17091;SDS011;8661;45.700;4.880;2023-02-01T06:26:35;10.47;;;4.40;;
17091;SDS011;8661;45.700;4.880;2023-02-01T06:29:05;7.30;;;4.10;;
17091;SDS011;8661;45.700;4.880;2023-02-01T06:31:32;11.60;;;5.50;;
17091;SDS011;8661;45.700;4.880;2023-02-01T06:34:03;10.57;;;5.10;;
17091;SDS011;8661;45.700;4.880;2023-02-01T06:36:30;13.00;;;5.53;;
17091;SDS011;8661;45.700;4.880;2023-02-01T06:38:59;8.37;;;4.57;;
17091;SDS011;8661;45.700;4.880;2023-02-01T06:41:26;7.97;;;4.40;;
17091;SDS011;8661;45.700;4.880;2023-02-01T06:43:54;10.37;;;4.37;;
17091;SDS011;8661;45.700;4.880;2023-02-01T06:46:21;7.13;;;3.70;;
17091;SDS011;8661;45.700;4.880;2023-02-01T06:48:49;6.83;;;4.30;;
17091;SDS011;8661;45.700;4.880;2023-02-01T06:51:20;9.43;;;3.90;;
17091;SDS011;8661;45.700;4.880;2023-02-01T06:53:48;7.27;;;3.57;;
17091;SDS011;8661;45.700;4.880;2023-02-01T06:56:18;8.00;;;3.17;;
17091;SDS011;8661;45.700;4.880;2023-02-01T06:58:46;12.50;;;3.53;;
17091;SDS011;8661;45.700;4.880;2023-02-01T07:01:14;7.67;;;3.50;;
17091;SDS011;8661;45.700;4.880;2023-02-01T07:03:42;6.67;;;3.70;;
17091;SDS011;8661;45.700;4.880;2023-02-01T07:06:13;5.93;;;3.67;;
17091;SDS011;8661;45.700;4.880;2023-02-01T07:08:40;68.40;;;18.57;;
17091;SDS011;8661;45.700;4.880;2023-02-01T07:11:08;89.60;;;28.00;;
17091;SDS011;8661;45.700;4.880;2023-02-01T07:13:38;105.43;;;31.87;;
17091;SDS011;8661;45.700;4.880;2023-02-01T07:16:07;86.93;;;30.60;;
17091;SDS011;8661;45.700;4.880;2023-02-01T07:18:37;58.83;;;21.63;;
17091;SDS011;8661;45.700;4.880;2023-02-01T07:21:05;53.20;;;19.97;;
17091;SDS011;8661;45.700;4.880;2023-02-01T07:23:32;17.30;;;8.20;;
17091;SDS011;8661;45.700;4.880;2023-02-01T07:26:04;20.63;;;8.17;;
17091;SDS011;8661;45.700;4.880;2023-02-01T07:28:34;12.63;;;5.33;;
17091;SDS011;8661;45.700;4.880;2023-02-01T07:31:05;10.77;;;4.37;;
17091;SDS011;8661;45.700;4.880;2023-02-01T07:33:38;8.67;;;4.20;;
17091;SDS011;8661;45.700;4.880;2023-02-01T07:36:06;7.30;;;4.33;;
17091;SDS011;8661;45.700;4.880;2023-02-01T07:38:37;7.90;;;3.50;;
17091;SDS011;8661;45.700;4.880;2023-02-01T07:41:04;7.67;;;4.33;;
17091;SDS011;8661;45.700;4.880;2023-02-01T07:43:33;7.47;;;3.63;;
17091;SDS011;8661;45.700;4.880;2023-02-01T07:46:06;9.80;;;3.80;;
17091;SDS011;8661;45.700;4.880;2023-02-01T07:48:34;11.47;;;4.27;;
17091;SDS011;8661;45.700;4.880;2023-02-01T07:51:03;11.23;;;4.07;;
17091;SDS011;8661;45.700;4.880;2023-02-01T07:53:32;8.60;;;4.07;;
17091;SDS011;8661;45.700;4.880;2023-02-01T07:56:01;10.23;;;4.40;;
17091;SDS011;8661;45.700;4.880;2023-02-01T07:58:29;8.27;;;4.20;;
17091;SDS011;8661;45.700;4.880;2023-02-01T08:01:00;6.10;;;4.23;;
17091;SDS011;8661;45.700;4.880;2023-02-01T08:03:49;5.83;;;4.10;;
17091;SDS011;8661;45.700;4.880;2023-02-01T08:06:17;12.30;;;4.50;;
17091;SDS011;8661;45.700;4.880;2023-02-01T08:08:46;13.23;;;4.33;;
17091;SDS011;8661;45.700;4.880;2023-02-01T08:11:13;8.10;;;4.20;;
17091;SDS011;8661;45.700;4.880;2023-02-01T08:13:42;6.63;;;3.70;;
17091;SDS011;8661;45.700;4.880;2023-02-01T08:16:11;10.10;;;4.17;;
17091;SDS011;8661;45.700;4.880;2023-02-01T08:18:39;8.10;;;4.67;;
17091;SDS011;8661;45.700;4.880;2023-02-01T08:21:08;11.07;;;4.43;;
17091;SDS011;8661;45.700;4.880;2023-02-01T08:23:37;10.07;;;4.47;;
17091;SDS011;8661;45.700;4.880;2023-02-01T08:26:09;7.90;;;5.40;;
17091;SDS011;8661;45.700;4.880;2023-02-01T08:28:38;9.10;;;4.83;;
17091;SDS011;8661;45.700;4.880;2023-02-01T08:31:07;9.67;;;5.10;;
17091;SDS011;8661;45.700;4.880;2023-02-01T08:33:37;13.27;;;5.90;;
17091;SDS011;8661;45.700;4.880;2023-02-01T08:36:04;13.50;;;6.23;;
17091;SDS011;8661;45.700;4.880;2023-02-01T08:38:34;9.90;;;5.50;;
17091;SDS011;8661;45.700;4.880;2023-02-01T08:41:05;11.03;;;5.10;;
17091;SDS011;8661;45.700;4.880;2023-02-01T08:43:33;10.17;;;4.50;;
17091;SDS011;8661;45.700;4.880;2023-02-01T08:45:59;10.27;;;4.60;;
17091;SDS011;8661;45.700;4.880;2023-02-01T08:48:26;12.27;;;4.60;;
17091;SDS011;8661;45.700;4.880;2023-02-01T08:50:55;11.77;;;4.83;;
17091;SDS011;8661;45.700;4.880;2023-02-01T08:53:22;13.23;;;5.40;;
17091;SDS011;8661;45.700;4.880;2023-02-01T08:55:49;6.80;;;4.80;;
17091;SDS011;8661;45.700;4.880;2023-02-01T08:58:16;10.30;;;4.47;;
17091;SDS011;8661;45.700;4.880;2023-02-01T09:00:43;8.70;;;4.77;;
17091;SDS011;8661;45.700;4.880;2023-02-01T09:03:10;8.53;;;4.90;;
17091;SDS011;8661;45.700;4.880;2023-02-01T09:05:38;9.80;;;4.90;;
17091;SDS011;8661;45.700;4.880;2023-02-01T09:08:06;9.83;;;5.33;;
17091;SDS011;8661;45.700;4.880;2023-02-01T09:10:34;10.13;;;4.63;;
17091;SDS011;8661;45.700;4.880;2023-02-01T09:13:01;8.13;;;4.20;;
17091;SDS011;8661;45.700;4.880;2023-02-01T09:15:28;9.83;;;4.53;;
17091;SDS011;8661;45.700;4.880;2023-02-01T09:17:55;10.50;;;5.00;;
17091;SDS011;8661;45.700;4.880;2023-02-01T09:20:22;10.80;;;5.00;;
17091;SDS011;8661;45.700;4.880;2023-02-01T09:22:49;11.33;;;5.17;;
17091;SDS011;8661;45.700;4.880;2023-02-01T09:25:18;8.53;;;4.50;;
17091;SDS011;8661;45.700;4.880;2023-02-01T09:27:45;11.03;;;5.23;;
17091;SDS011;8661;45.700;4.880;2023-02-01T09:30:12;15.60;;;6.63;;
17091;SDS011;8661;45.700;4.880;2023-02-01T09:32:39;8.37;;;5.10;;
17091;SDS011;8661;45.700;4.880;2023-02-01T09:35:06;12.27;;;5.30;;
17091;SDS011;8661;45.700;4.880;2023-02-01T09:37:35;16.30;;;5.83;;
17091;SDS011;8661;45.700;4.880;2023-02-01T09:40:02;12.50;;;6.43;;
17091;SDS011;8661;45.700;4.880;2023-02-01T09:42:43;9.90;;;5.97;;
17091;SDS011;8661;45.700;4.880;2023-02-01T09:45:20;7.87;;;5.50;;
17091;SDS011;8661;45.700;4.880;2023-02-01T09:47:51;15.07;;;6.97;;
17091;SDS011;8661;45.700;4.880;2023-02-01T09:50:21;13.13;;;6.63;;
17091;SDS011;8661;45.700;4.880;2023-02-01T09:52:55;12.53;;;5.97;;
17091;SDS011;8661;45.700;4.880;2023-02-01T09:55:27;12.93;;;6.40;;
17091;SDS011;8661;45.700;4.880;2023-02-01T09:58:04;15.57;;;7.20;;
17091;SDS011;8661;45.700;4.880;2023-02-01T10:00:35;12.83;;;6.10;;
17091;SDS011;8661;45.700;4.880;2023-02-01T10:03:03;14.43;;;6.70;;
17091;SDS011;8661;45.700;4.880;2023-02-01T10:05:37;13.57;;;7.43;;
17091;SDS011;8661;45.700;4.880;2023-02-01T10:08:17;19.37;;;8.87;;
17091;SDS011;8661;45.700;4.880;2023-02-01T10:10:51;13.77;;;7.40;;
17091;SDS011;8661;45.700;4.880;2023-02-01T10:13:29;15.33;;;7.57;;
17091;SDS011;8661;45.700;4.880;2023-02-01T10:16:07;12.60;;;7.00;;
17091;SDS011;8661;45.700;4.880;2023-02-01T10:18:51;11.73;;;6.63;;
17091;SDS011;8661;45.700;4.880;2023-02-01T10:21:39;19.17;;;8.67;;
17091;SDS011;8661;45.700;4.880;2023-02-01T10:24:22;19.00;;;8.17;;
17091;SDS011;8661;45.700;4.880;2023-02-01T10:27:01;17.90;;;8.57;;
17091;SDS011;8661;45.700;4.880;2023-02-01T10:29:37;12.87;;;7.70;;
17091;SDS011;8661;45.700;4.880;2023-02-01T10:32:12;14.10;;;8.03;;
17091;SDS011;8661;45.700;4.880;2023-02-01T10:34:42;14.73;;;8.07;;
17091;SDS011;8661;45.700;4.880;2023-02-01T10:37:16;13.83;;;8.33;;
17091;SDS011;8661;45.700;4.880;2023-02-01T10:39:49;13.70;;;7.17;;
17091;SDS011;8661;45.700;4.880;2023-02-01T10:42:20;13.57;;;6.20;;
17091;SDS011;8661;45.700;4.880;2023-02-01T10:44:51;9.80;;;5.57;;
17091;SDS011;8661;45.700;4.880;2023-02-01T10:47:20;10.43;;;6.30;;
17091;SDS011;8661;45.700;4.880;2023-02-01T10:49:49;13.40;;;6.30;;
17091;SDS011;8661;45.700;4.880;2023-02-01T10:52:23;9.27;;;6.20;;
17091;SDS011;8661;45.700;4.880;2023-02-01T10:57:55;8.60;;;5.53;;
17091;SDS011;8661;45.700;4.880;2023-02-01T11:00:25;13.47;;;6.03;;
17091;SDS011;8661;45.700;4.880;2023-02-01T11:02:52;13.17;;;5.63;;
17091;SDS011;8661;45.700;4.880;2023-02-01T11:05:21;9.73;;;5.10;;
17091;SDS011;8661;45.700;4.880;2023-02-01T11:07:49;10.53;;;4.80;;
17091;SDS011;8661;45.700;4.880;2023-02-01T11:10:35;11.10;;;4.03;;
17091;SDS011;8661;45.700;4.880;2023-02-01T11:13:04;8.97;;;4.40;;
17091;SDS011;8661;45.700;4.880;2023-02-01T11:15:32;6.17;;;3.80;;
17091;SDS011;8661;45.700;4.880;2023-02-01T11:18:12;7.70;;;4.07;;
17091;SDS011;8661;45.700;4.880;2023-02-01T11:20:43;8.40;;;4.80;;
17091;SDS011;8661;45.700;4.880;2023-02-01T11:23:14;12.10;;;4.60;;
17091;SDS011;8661;45.700;4.880;2023-02-01T11:25:49;14.53;;;4.30;;
17091;SDS011;8661;45.700;4.880;2023-02-01T11:28:18;6.93;;;4.23;;
17091;SDS011;8661;45.700;4.880;2023-02-01T11:30:50;8.27;;;4.23;;
17091;SDS011;8661;45.700;4.880;2023-02-01T11:33:23;7.10;;;4.50;;
17091;SDS011;8661;45.700;4.880;2023-02-01T11:35:55;7.03;;;4.27;;
17091;SDS011;8661;45.700;4.880;2023-02-01T11:38:26;5.23;;;3.60;;
17091;SDS011;8661;45.700;4.880;2023-02-01T11:40:54;8.10;;;4.77;;
17091;SDS011;8661;45.700;4.880;2023-02-01T11:43:23;6.83;;;4.10;;
17091;SDS011;8661;45.700;4.880;2023-02-01T11:45:57;7.60;;;4.20;;
17091;SDS011;8661;45.700;4.880;2023-02-01T11:48:26;6.07;;;3.87;;
17091;SDS011;8661;45.700;4.880;2023-02-01T11:50:59;6.57;;;4.43;;
17091;SDS011;8661;45.700;4.880;2023-02-01T11:53:38;6.37;;;4.10;;
17091;SDS011;8661;45.700;4.880;2023-02-01T11:56:25;7.30;;;4.00;;
17091;SDS011;8661;45.700;4.880;2023-02-01T11:59:02;6.93;;;4.13;;
17091;SDS011;8661;45.700;4.880;2023-02-01T12:01:52;5.87;;;4.30;;
17091;SDS011;8661;45.700;4.880;2023-02-01T12:04:59;12.57;;;5.77;;
17091;SDS011;8661;45.700;4.880;2023-02-01T12:07:53;11.63;;;4.83;;
17091;SDS011;8661;45.700;4.880;2023-02-01T12:10:36;12.10;;;5.40;;
17091;SDS011;8661;45.700;4.880;2023-02-01T12:13:14;7.93;;;4.83;;
17091;SDS011;8661;45.700;4.880;2023-02-01T12:15:53;10.13;;;5.10;;
17091;SDS011;8661;45.700;4.880;2023-02-01T12:18:48;8.27;;;5.03;;
17091;SDS011;8661;45.700;4.880;2023-02-01T12:21:48;12.83;;;4.83;;
17091;SDS011;8661;45.700;4.880;2023-02-01T12:24:32;6.50;;;4.63;;
17091;SDS011;8661;45.700;4.880;2023-02-01T12:30:27;8.23;;;4.60;;
17091;SDS011;8661;45.700;4.880;2023-02-01T12:33:18;8.53;;;4.03;;
17091;SDS011;8661;45.700;4.880;2023-02-01T12:36:02;8.03;;;4.10;;
17091;SDS011;8661;45.700;4.880;2023-02-01T12:38:46;6.70;;;4.00;;
17091;SDS011;8661;45.700;4.880;2023-02-01T12:44:11;4.20;;;3.00;;
17091;SDS011;8661;45.700;4.880;2023-02-01T12:46:43;7.37;;;3.73;;
17091;SDS011;8661;45.700;4.880;2023-02-01T12:49:17;6.57;;;3.40;;
17091;SDS011;8661;45.700;4.880;2023-02-01T12:51:52;9.20;;;3.47;;
17091;SDS011;8661;45.700;4.880;2023-02-01T12:54:27;5.80;;;3.50;;
17091;SDS011;8661;45.700;4.880;2023-02-01T12:57:00;5.50;;;2.97;;
17091;SDS011;8661;45.700;4.880;2023-02-01T12:59:31;6.00;;;3.10;;
17091;SDS011;8661;45.700;4.880;2023-02-01T13:02:04;9.93;;;3.20;;
17091;SDS011;8661;45.700;4.880;2023-02-01T13:04:48;4.97;;;3.10;;
17091;SDS011;8661;45.700;4.880;2023-02-01T13:07:23;7.60;;;3.03;;
17091;SDS011;8661;45.700;4.880;2023-02-01T13:09:53;5.03;;;3.20;;
17091;SDS011;8661;45.700;4.880;2023-02-01T13:12:26;8.73;;;3.87;;
17091;SDS011;8661;45.700;4.880;2023-02-01T13:15:02;5.33;;;3.73;;
17091;SDS011;8661;45.700;4.880;2023-02-01T13:17:37;5.27;;;3.30;;
17091;SDS011;8661;45.700;4.880;2023-02-01T13:20:13;5.80;;;3.37;;
17091;SDS011;8661;45.700;4.880;2023-02-01T13:22:47;8.30;;;3.80;;
17091;SDS011;8661;45.700;4.880;2023-02-01T13:25:19;6.43;;;3.13;;
17091;SDS011;8661;45.700;4.880;2023-02-01T13:27:53;7.23;;;2.53;;
17091;SDS011;8661;45.700;4.880;2023-02-01T13:30:23;4.73;;;2.77;;
17091;SDS011;8661;45.700;4.880;2023-02-01T13:33:06;3.33;;;2.33;;
17091;SDS011;8661;45.700;4.880;2023-02-01T13:35:58;4.53;;;2.37;;
17091;SDS011;8661;45.700;4.880;2023-02-01T13:38:49;3.73;;;2.37;;
17091;SDS011;8661;45.700;4.880;2023-02-01T13:41:32;4.83;;;2.13;;
17091;SDS011;8661;45.700;4.880;2023-02-01T13:44:05;3.20;;;2.10;;
17091;SDS011;8661;45.700;4.880;2023-02-01T13:46:39;3.23;;;1.97;;
17091;SDS011;8661;45.700;4.880;2023-02-01T13:49:13;4.13;;;2.40;;
17091;SDS011;8661;45.700;4.880;2023-02-01T13:51:47;5.80;;;2.20;;
17091;SDS011;8661;45.700;4.880;2023-02-01T13:54:28;4.17;;;2.30;;
17091;SDS011;8661;45.700;4.880;2023-02-01T13:56:57;5.37;;;2.37;;
17091;SDS011;8661;45.700;4.880;2023-02-01T14:06:02;7.47;;;3.90;;
17091;SDS011;8661;45.700;4.880;2023-02-01T14:08:44;10.00;;;5.30;;
17091;SDS011;8661;45.700;4.880;2023-02-01T14:11:41;18.03;;;9.73;;
17091;SDS011;8661;45.700;4.880;2023-02-01T14:23:17;3.57;;;2.13;;
17091;SDS011;8661;45.700;4.880;2023-02-01T14:25:47;6.30;;;2.60;;
17091;SDS011;8661;45.700;4.880;2023-02-01T14:28:34;6.03;;;2.40;;
17091;SDS011;8661;45.700;4.880;2023-02-01T14:31:13;4.90;;;2.40;;
17091;SDS011;8661;45.700;4.880;2023-02-01T14:33:46;6.37;;;2.57;;
17091;SDS011;8661;45.700;4.880;2023-02-01T14:36:13;7.80;;;2.40;;
17091;SDS011;8661;45.700;4.880;2023-02-01T14:38:47;8.03;;;2.30;;
17091;SDS011;8661;45.700;4.880;2023-02-01T14:41:25;6.10;;;1.93;;
17091;SDS011;8661;45.700;4.880;2023-02-01T14:49:56;3.53;;;1.93;;
17091;SDS011;8661;45.700;4.880;2023-02-01T14:52:50;2.70;;;1.90;;
17091;SDS011;8661;45.700;4.880;2023-02-01T14:55:38;3.40;;;2.10;;
17091;SDS011;8661;45.700;4.880;2023-02-01T14:58:11;7.47;;;2.63;;
17091;SDS011;8661;45.700;4.880;2023-02-01T15:00:47;7.50;;;2.93;;
17091;SDS011;8661;45.700;4.880;2023-02-01T15:03:35;4.97;;;3.23;;
17091;SDS011;8661;45.700;4.880;2023-02-01T15:06:20;5.47;;;3.07;;
17091;SDS011;8661;45.700;4.880;2023-02-01T15:08:57;6.17;;;4.13;;
17091;SDS011;8661;45.700;4.880;2023-02-01T15:11:27;3.87;;;2.70;;
17091;SDS011;8661;45.700;4.880;2023-02-01T15:13:54;4.07;;;2.17;;
17091;SDS011;8661;45.700;4.880;2023-02-01T15:16:22;4.10;;;2.40;;
17091;SDS011;8661;45.700;4.880;2023-02-01T15:18:57;5.27;;;2.67;;
17091;SDS011;8661;45.700;4.880;2023-02-01T15:21:37;7.03;;;2.50;;
17091;SDS011;8661;45.700;4.880;2023-02-01T15:24:10;5.73;;;2.90;;
17091;SDS011;8661;45.700;4.880;2023-02-01T15:26:38;8.23;;;3.07;;
17091;SDS011;8661;45.700;4.880;2023-02-01T15:29:05;4.57;;;2.73;;
17091;SDS011;8661;45.700;4.880;2023-02-01T15:31:36;4.70;;;2.70;;
17091;SDS011;8661;45.700;4.880;2023-02-01T15:34:07;3.30;;;2.20;;
17091;SDS011;8661;45.700;4.880;2023-02-01T15:36:34;6.70;;;2.63;;
17091;SDS011;8661;45.700;4.880;2023-02-01T15:39:12;3.73;;;2.33;;
17091;SDS011;8661;45.700;4.880;2023-02-01T15:41:44;9.53;;;2.90;;
17091;SDS011;8661;45.700;4.880;2023-02-01T15:44:16;3.47;;;2.20;;
17091;SDS011;8661;45.700;4.880;2023-02-01T15:46:46;4.93;;;2.67;;
17091;SDS011;8661;45.700;4.880;2023-02-01T15:49:20;6.23;;;2.20;;
17091;SDS011;8661;45.700;4.880;2023-02-01T15:51:52;6.73;;;2.37;;
17091;SDS011;8661;45.700;4.880;2023-02-01T15:54:22;5.70;;;2.70;;
17091;SDS011;8661;45.700;4.880;2023-02-01T15:56:53;4.43;;;2.30;;
17091;SDS011;8661;45.700;4.880;2023-02-01T15:59:22;4.20;;;2.40;;
17091;SDS011;8661;45.700;4.880;2023-02-01T16:01:51;5.30;;;2.73;;
17091;SDS011;8661;45.700;4.880;2023-02-01T16:04:20;7.37;;;2.40;;
17091;SDS011;8661;45.700;4.880;2023-02-01T16:06:49;7.10;;;2.43;;
17091;SDS011;8661;45.700;4.880;2023-02-01T16:09:18;5.57;;;2.67;;